sensor_id;sensor_type;location;lat;lon;timestamp;temperature;humidity
57026;DHT22;43961;52.940;6.834;2022-10-16T00:00:30;11.80;99.90
57026;DHT22;43961;52.940;6.834;2022-10-16T00:02:55;11.70;99.90
57026;DHT22;43961;52.940;6.834;2022-10-16T00:05:21;11.70;99.90
57026;DHT22;43961;52.940;6.834;2022-10-16T00:07:47;11.70;99.90
57026;DHT22;43961;52.940;6.834;2022-10-16T00:10:12;11.70;99.90
57026;DHT22;43961;52.940;6.834;2022-10-16T00:12:38;11.70;99.90
57026;DHT22;43961;52.940;6.834;2022-10-16T00:15:04;11.70;99.90
57026;DHT22;43961;52.940;6.834;2022-10-16T00:17:30;11.70;99.90
57026;DHT22;43961;52.940;6.834;2022-10-16T00:19:56;11.70;99.90
57026;DHT22;43961;52.940;6.834;2022-10-16T00:22:22;11.80;99.90
57026;DHT22;43961;52.940;6.834;2022-10-16T00:24:48;11.80;99.90
57026;DHT22;43961;52.940;6.834;2022-10-16T00:27:13;11.70;99.90
57026;DHT22;43961;52.940;6.834;2022-10-16T00:29:39;11.80;99.90
57026;DHT22;43961;52.940;6.834;2022-10-16T00:32:04;11.80;99.90
57026;DHT22;43961;52.940;6.834;2022-10-16T00:34:30;11.80;99.90
57026;DHT22;43961;52.940;6.834;2022-10-16T00:36:56;11.80;99.90
57026;DHT22;43961;52.940;6.834;2022-10-16T00:39:21;11.80;99.90
57026;DHT22;43961;52.940;6.834;2022-10-16T00:41:47;11.80;99.90
57026;DHT22;43961;52.940;6.834;2022-10-16T00:44:43;11.80;99.90
57026;DHT22;43961;52.940;6.834;2022-10-16T00:47:17;11.80;99.90
57026;DHT22;43961;52.940;6.834;2022-10-16T00:49:43;11.80;99.90
57026;DHT22;43961;52.940;6.834;2022-10-16T00:52:10;11.80;99.90
57026;DHT22;43961;52.940;6.834;2022-10-16T00:54:36;11.70;99.90
57026;DHT22;43961;52.940;6.834;2022-10-16T00:57:05;11.70;99.90
57026;DHT22;43961;52.940;6.834;2022-10-16T00:59:38;11.80;99.90
57026;DHT22;43961;52.940;6.834;2022-10-16T01:02:06;11.70;99.90
57026;DHT22;43961;52.940;6.834;2022-10-16T01:04:57;11.70;99.90
57026;DHT22;43961;52.940;6.834;2022-10-16T01:10:35;11.70;99.90
57026;DHT22;43961;52.940;6.834;2022-10-16T01:13:18;11.70;99.90
57026;DHT22;43961;52.940;6.834;2022-10-16T01:15:57;11.70;99.90
57026;DHT22;43961;52.940;6.834;2022-10-16T01:18:44;11.60;99.90
57026;DHT22;43961;52.940;6.834;2022-10-16T01:21:24;11.70;99.90
57026;DHT22;43961;52.940;6.834;2022-10-16T01:26:58;11.70;99.90
57026;DHT22;43961;52.940;6.834;2022-10-16T01:29:28;11.70;99.90
57026;DHT22;43961;52.940;6.834;2022-10-16T01:32:00;11.70;99.90
57026;DHT22;43961;52.940;6.834;2022-10-16T01:34:37;11.70;99.90
57026;DHT22;43961;52.940;6.834;2022-10-16T01:37:12;11.80;99.90
57026;DHT22;43961;52.940;6.834;2022-10-16T01:39:40;11.70;99.90
57026;DHT22;43961;52.940;6.834;2022-10-16T01:42:11;11.80;99.90
57026;DHT22;43961;52.940;6.834;2022-10-16T01:44:38;11.70;99.90
57026;DHT22;43961;52.940;6.834;2022-10-16T01:47:05;11.80;99.90
57026;DHT22;43961;52.940;6.834;2022-10-16T01:49:35;11.80;99.90
57026;DHT22;43961;52.940;6.834;2022-10-16T01:52:06;11.80;99.90
57026;DHT22;43961;52.940;6.834;2022-10-16T01:54:35;11.80;99.90
57026;DHT22;43961;52.940;6.834;2022-10-16T01:57:04;11.80;99.90
57026;DHT22;43961;52.940;6.834;2022-10-16T01:59:34;11.80;99.90
57026;DHT22;43961;52.940;6.834;2022-10-16T02:02:06;11.80;99.90
57026;DHT22;43961;52.940;6.834;2022-10-16T02:04:36;11.80;99.90
57026;DHT22;43961;52.940;6.834;2022-10-16T02:07:03;11.80;99.90
57026;DHT22;43961;52.940;6.834;2022-10-16T02:09:32;11.90;99.90
57026;DHT22;43961;52.940;6.834;2022-10-16T02:11:59;11.90;99.90
57026;DHT22;43961;52.940;6.834;2022-10-16T02:14:28;12.00;99.90
57026;DHT22;43961;52.940;6.834;2022-10-16T02:16:54;11.90;99.90
57026;DHT22;43961;52.940;6.834;2022-10-16T02:19:21;11.90;99.90
57026;DHT22;43961;52.940;6.834;2022-10-16T02:21:54;12.00;99.90
57026;DHT22;43961;52.940;6.834;2022-10-16T02:27:10;11.90;99.90
57026;DHT22;43961;52.940;6.834;2022-10-16T02:29:44;12.00;99.90
57026;DHT22;43961;52.940;6.834;2022-10-16T02:32:15;11.90;99.90
57026;DHT22;43961;52.940;6.834;2022-10-16T02:34:42;11.90;99.90
57026;DHT22;43961;52.940;6.834;2022-10-16T02:37:09;12.00;99.90
57026;DHT22;43961;52.940;6.834;2022-10-16T02:39:36;12.00;99.90
57026;DHT22;43961;52.940;6.834;2022-10-16T02:42:03;12.00;99.90
57026;DHT22;43961;52.940;6.834;2022-10-16T02:44:28;12.00;99.90
57026;DHT22;43961;52.940;6.834;2022-10-16T02:46:54;12.00;99.90
57026;DHT22;43961;52.940;6.834;2022-10-16T02:49:20;12.00;99.90
57026;DHT22;43961;52.940;6.834;2022-10-16T02:51:46;12.00;99.90
57026;DHT22;43961;52.940;6.834;2022-10-16T02:54:11;12.00;99.90
57026;DHT22;43961;52.940;6.834;2022-10-16T02:56:38;12.10;99.90
57026;DHT22;43961;52.940;6.834;2022-10-16T02:59:04;12.10;99.90
57026;DHT22;43961;52.940;6.834;2022-10-16T03:01:29;12.10;99.90
57026;DHT22;43961;52.940;6.834;2022-10-16T03:03:55;12.20;99.90
57026;DHT22;43961;52.940;6.834;2022-10-16T03:06:21;12.10;99.90
57026;DHT22;43961;52.940;6.834;2022-10-16T03:08:47;12.10;99.90
57026;DHT22;43961;52.940;6.834;2022-10-16T03:11:12;12.10;99.90
57026;DHT22;43961;52.940;6.834;2022-10-16T03:13:38;12.10;99.90
57026;DHT22;43961;52.940;6.834;2022-10-16T03:16:04;12.10;99.90
57026;DHT22;43961;52.940;6.834;2022-10-16T03:18:29;12.20;99.90
57026;DHT22;43961;52.940;6.834;2022-10-16T03:20:55;12.10;99.90
57026;DHT22;43961;52.940;6.834;2022-10-16T03:23:20;12.20;99.90
57026;DHT22;43961;52.940;6.834;2022-10-16T03:25:46;12.20;99.90
57026;DHT22;43961;52.940;6.834;2022-10-16T03:28:12;12.20;99.90
57026;DHT22;43961;52.940;6.834;2022-10-16T03:30:37;12.20;99.90
57026;DHT22;43961;52.940;6.834;2022-10-16T03:33:05;12.20;99.90
57026;DHT22;43961;52.940;6.834;2022-10-16T03:35:31;12.20;99.90
57026;DHT22;43961;52.940;6.834;2022-10-16T03:37:57;12.20;99.90
57026;DHT22;43961;52.940;6.834;2022-10-16T03:40:23;12.20;99.90
57026;DHT22;43961;52.940;6.834;2022-10-16T03:42:49;12.30;99.90
57026;DHT22;43961;52.940;6.834;2022-10-16T03:45:15;12.20;99.90
57026;DHT22;43961;52.940;6.834;2022-10-16T03:47:41;12.30;99.90
57026;DHT22;43961;52.940;6.834;2022-10-16T03:50:08;12.30;99.90
57026;DHT22;43961;52.940;6.834;2022-10-16T03:52:34;12.30;99.90
57026;DHT22;43961;52.940;6.834;2022-10-16T03:54:59;12.20;99.90
57026;DHT22;43961;52.940;6.834;2022-10-16T03:57:25;12.20;99.90
57026;DHT22;43961;52.940;6.834;2022-10-16T03:59:50;12.20;99.90
57026;DHT22;43961;52.940;6.834;2022-10-16T04:02:17;12.20;99.90
57026;DHT22;43961;52.940;6.834;2022-10-16T04:04:43;12.20;99.90
57026;DHT22;43961;52.940;6.834;2022-10-16T04:07:08;12.20;99.90
57026;DHT22;43961;52.940;6.834;2022-10-16T04:09:34;12.20;99.90
57026;DHT22;43961;52.940;6.834;2022-10-16T04:12:00;12.20;99.90
57026;DHT22;43961;52.940;6.834;2022-10-16T04:14:25;12.20;99.90
57026;DHT22;43961;52.940;6.834;2022-10-16T04:16:51;12.20;99.90
57026;DHT22;43961;52.940;6.834;2022-10-16T04:19:17;12.10;99.90
57026;DHT22;43961;52.940;6.834;2022-10-16T04:21:42;12.10;99.90
57026;DHT22;43961;52.940;6.834;2022-10-16T04:24:08;12.10;99.90
57026;DHT22;43961;52.940;6.834;2022-10-16T04:26:33;12.20;99.90
57026;DHT22;43961;52.940;6.834;2022-10-16T04:28:59;12.10;99.90
57026;DHT22;43961;52.940;6.834;2022-10-16T04:31:25;12.10;99.90
57026;DHT22;43961;52.940;6.834;2022-10-16T04:33:50;12.20;99.90
57026;DHT22;43961;52.940;6.834;2022-10-16T04:36:16;12.00;99.90
57026;DHT22;43961;52.940;6.834;2022-10-16T04:38:42;12.00;99.90
57026;DHT22;43961;52.940;6.834;2022-10-16T04:41:07;12.10;99.90
57026;DHT22;43961;52.940;6.834;2022-10-16T04:43:34;12.10;99.90
57026;DHT22;43961;52.940;6.834;2022-10-16T04:45:59;12.00;99.90
57026;DHT22;43961;52.940;6.834;2022-10-16T04:48:26;12.00;99.90
57026;DHT22;43961;52.940;6.834;2022-10-16T04:50:51;12.10;99.90
57026;DHT22;43961;52.940;6.834;2022-10-16T04:53:17;12.00;99.90
57026;DHT22;43961;52.940;6.834;2022-10-16T04:55:43;12.10;99.90
57026;DHT22;43961;52.940;6.834;2022-10-16T04:58:09;12.00;99.90
57026;DHT22;43961;52.940;6.834;2022-10-16T05:00:35;12.10;99.90
57026;DHT22;43961;52.940;6.834;2022-10-16T05:03:01;12.10;99.90
57026;DHT22;43961;52.940;6.834;2022-10-16T05:05:31;12.10;99.90
57026;DHT22;43961;52.940;6.834;2022-10-16T05:07:57;12.10;99.90
57026;DHT22;43961;52.940;6.834;2022-10-16T05:10:22;12.10;99.90
57026;DHT22;43961;52.940;6.834;2022-10-16T05:12:48;12.10;99.90
57026;DHT22;43961;52.940;6.834;2022-10-16T05:15:14;12.10;99.90
57026;DHT22;43961;52.940;6.834;2022-10-16T05:17:40;12.10;99.90
57026;DHT22;43961;52.940;6.834;2022-10-16T05:20:06;12.10;99.90
57026;DHT22;43961;52.940;6.834;2022-10-16T05:22:31;12.10;99.90
57026;DHT22;43961;52.940;6.834;2022-10-16T05:24:57;12.20;99.90
57026;DHT22;43961;52.940;6.834;2022-10-16T05:27:23;12.20;99.90
57026;DHT22;43961;52.940;6.834;2022-10-16T05:29:49;12.10;99.90
57026;DHT22;43961;52.940;6.834;2022-10-16T05:32:15;12.30;99.90
57026;DHT22;43961;52.940;6.834;2022-10-16T05:34:41;12.20;99.90
57026;DHT22;43961;52.940;6.834;2022-10-16T05:37:07;12.20;99.90
57026;DHT22;43961;52.940;6.834;2022-10-16T05:39:33;12.20;99.90
57026;DHT22;43961;52.940;6.834;2022-10-16T05:41:59;12.20;99.90
57026;DHT22;43961;52.940;6.834;2022-10-16T05:44:24;12.20;99.90
57026;DHT22;43961;52.940;6.834;2022-10-16T05:46:51;12.20;99.90
57026;DHT22;43961;52.940;6.834;2022-10-16T05:49:17;12.20;99.90
57026;DHT22;43961;52.940;6.834;2022-10-16T05:51:42;12.40;99.90
57026;DHT22;43961;52.940;6.834;2022-10-16T05:54:08;12.20;99.90
57026;DHT22;43961;52.940;6.834;2022-10-16T05:56:34;12.20;99.90
57026;DHT22;43961;52.940;6.834;2022-10-16T05:58:59;12.30;99.90
57026;DHT22;43961;52.940;6.834;2022-10-16T06:01:25;12.30;99.90
57026;DHT22;43961;52.940;6.834;2022-10-16T06:03:51;12.30;99.90
57026;DHT22;43961;52.940;6.834;2022-10-16T06:06:20;12.30;99.90
57026;DHT22;43961;52.940;6.834;2022-10-16T06:08:46;12.30;99.90
57026;DHT22;43961;52.940;6.834;2022-10-16T06:11:15;12.30;99.90
57026;DHT22;43961;52.940;6.834;2022-10-16T06:13:41;12.30;99.90
57026;DHT22;43961;52.940;6.834;2022-10-16T06:16:09;12.30;99.90
57026;DHT22;43961;52.940;6.834;2022-10-16T06:18:35;12.30;99.90
57026;DHT22;43961;52.940;6.834;2022-10-16T06:21:10;12.30;99.90
57026;DHT22;43961;52.940;6.834;2022-10-16T06:23:36;12.30;99.90
57026;DHT22;43961;52.940;6.834;2022-10-16T06:26:10;12.20;99.90
57026;DHT22;43961;52.940;6.834;2022-10-16T06:28:36;12.30;99.90
57026;DHT22;43961;52.940;6.834;2022-10-16T06:31:03;12.30;99.90
57026;DHT22;43961;52.940;6.834;2022-10-16T06:33:29;12.30;99.90
57026;DHT22;43961;52.940;6.834;2022-10-16T06:36:06;12.30;99.90
57026;DHT22;43961;52.940;6.834;2022-10-16T06:38:34;12.30;99.90
57026;DHT22;43961;52.940;6.834;2022-10-16T06:41:00;12.40;99.90
57026;DHT22;43961;52.940;6.834;2022-10-16T06:43:26;12.30;99.90
57026;DHT22;43961;52.940;6.834;2022-10-16T06:45:57;12.40;99.90
57026;DHT22;43961;52.940;6.834;2022-10-16T06:48:23;12.40;99.90
57026;DHT22;43961;52.940;6.834;2022-10-16T06:53:37;12.50;99.90
57026;DHT22;43961;52.940;6.834;2022-10-16T06:56:18;12.60;99.90
57026;DHT22;43961;52.940;6.834;2022-10-16T06:58:45;12.50;99.90
57026;DHT22;43961;52.940;6.834;2022-10-16T07:01:12;12.60;99.90
57026;DHT22;43961;52.940;6.834;2022-10-16T07:03:39;12.90;99.90
57026;DHT22;43961;52.940;6.834;2022-10-16T07:06:06;12.50;99.90
57026;DHT22;43961;52.940;6.834;2022-10-16T07:08:33;12.50;99.90
57026;DHT22;43961;52.940;6.834;2022-10-16T07:11:04;12.50;99.90
57026;DHT22;43961;52.940;6.834;2022-10-16T07:13:33;12.70;99.90
57026;DHT22;43961;52.940;6.834;2022-10-16T07:16:03;12.60;99.90
57026;DHT22;43961;52.940;6.834;2022-10-16T07:18:29;12.60;99.90
57026;DHT22;43961;52.940;6.834;2022-10-16T07:21:06;12.60;99.90
57026;DHT22;43961;52.940;6.834;2022-10-16T07:23:31;12.70;99.90
57026;DHT22;43961;52.940;6.834;2022-10-16T07:25:57;12.70;99.90
57026;DHT22;43961;52.940;6.834;2022-10-16T07:28:23;12.70;99.90
57026;DHT22;43961;52.940;6.834;2022-10-16T07:30:48;12.80;99.90
57026;DHT22;43961;52.940;6.834;2022-10-16T07:33:14;12.80;99.90
57026;DHT22;43961;52.940;6.834;2022-10-16T07:35:53;12.70;99.90
57026;DHT22;43961;52.940;6.834;2022-10-16T07:38:21;12.80;99.90
57026;DHT22;43961;52.940;6.834;2022-10-16T07:40:47;12.90;99.90
57026;DHT22;43961;52.940;6.834;2022-10-16T07:43:13;12.90;99.90
57026;DHT22;43961;52.940;6.834;2022-10-16T07:45:47;12.90;99.90
57026;DHT22;43961;52.940;6.834;2022-10-16T07:48:13;13.00;99.90
57026;DHT22;43961;52.940;6.834;2022-10-16T07:50:39;13.00;99.90
57026;DHT22;43961;52.940;6.834;2022-10-16T07:53:05;13.10;99.90
57026;DHT22;43961;52.940;6.834;2022-10-16T07:55:31;13.10;99.90
57026;DHT22;43961;52.940;6.834;2022-10-16T07:57:56;13.20;99.90
57026;DHT22;43961;52.940;6.834;2022-10-16T08:00:22;13.20;99.90
57026;DHT22;43961;52.940;6.834;2022-10-16T08:02:48;13.20;99.90
57026;DHT22;43961;52.940;6.834;2022-10-16T08:05:13;13.30;99.90
57026;DHT22;43961;52.940;6.834;2022-10-16T08:07:39;13.30;99.90
57026;DHT22;43961;52.940;6.834;2022-10-16T08:10:05;13.40;99.90
57026;DHT22;43961;52.940;6.834;2022-10-16T08:12:31;13.40;99.90
57026;DHT22;43961;52.940;6.834;2022-10-16T08:14:57;13.50;99.90
57026;DHT22;43961;52.940;6.834;2022-10-16T08:17:23;13.50;99.90
57026;DHT22;43961;52.940;6.834;2022-10-16T08:19:49;13.60;99.90
57026;DHT22;43961;52.940;6.834;2022-10-16T08:22:14;13.60;99.90
57026;DHT22;43961;52.940;6.834;2022-10-16T08:24:40;13.70;99.90
57026;DHT22;43961;52.940;6.834;2022-10-16T08:27:06;13.70;99.90
57026;DHT22;43961;52.940;6.834;2022-10-16T08:29:32;13.70;99.90
57026;DHT22;43961;52.940;6.834;2022-10-16T08:31:58;13.80;99.90
57026;DHT22;43961;52.940;6.834;2022-10-16T08:34:23;13.80;99.90
57026;DHT22;43961;52.940;6.834;2022-10-16T08:36:49;14.00;99.90
57026;DHT22;43961;52.940;6.834;2022-10-16T08:39:16;14.00;99.90
57026;DHT22;43961;52.940;6.834;2022-10-16T08:42:04;14.00;99.90
57026;DHT22;43961;52.940;6.834;2022-10-16T08:44:50;14.10;99.90
57026;DHT22;43961;52.940;6.834;2022-10-16T08:47:41;14.00;99.90
57026;DHT22;43961;52.940;6.834;2022-10-16T08:50:14;14.00;99.90
57026;DHT22;43961;52.940;6.834;2022-10-16T08:52:44;14.10;99.90
57026;DHT22;43961;52.940;6.834;2022-10-16T08:55:33;14.10;99.90
57026;DHT22;43961;52.940;6.834;2022-10-16T08:58:05;14.10;99.90
57026;DHT22;43961;52.940;6.834;2022-10-16T09:00:35;14.20;99.90
57026;DHT22;43961;52.940;6.834;2022-10-16T09:05:52;14.20;99.90
57026;DHT22;43961;52.940;6.834;2022-10-16T09:09:03;14.30;99.90
57026;DHT22;43961;52.940;6.834;2022-10-16T09:14:22;14.50;99.90
57026;DHT22;43961;52.940;6.834;2022-10-16T09:16:57;14.70;99.90
57026;DHT22;43961;52.940;6.834;2022-10-16T09:19:31;14.70;99.90
57026;DHT22;43961;52.940;6.834;2022-10-16T09:22:04;14.90;99.90
57026;DHT22;43961;52.940;6.834;2022-10-16T09:24:34;15.10;99.90
57026;DHT22;43961;52.940;6.834;2022-10-16T09:27:01;15.20;99.90
57026;DHT22;43961;52.940;6.834;2022-10-16T09:29:27;15.30;99.90
57026;DHT22;43961;52.940;6.834;2022-10-16T09:31:55;15.50;99.90
57026;DHT22;43961;52.940;6.834;2022-10-16T09:34:32;15.50;99.90
57026;DHT22;43961;52.940;6.834;2022-10-16T09:36:59;15.70;99.90
57026;DHT22;43961;52.940;6.834;2022-10-16T09:39:26;15.80;99.90
57026;DHT22;43961;52.940;6.834;2022-10-16T09:41:52;15.80;99.90
57026;DHT22;43961;52.940;6.834;2022-10-16T09:44:26;15.90;99.90
57026;DHT22;43961;52.940;6.834;2022-10-16T09:47:25;16.00;99.90
57026;DHT22;43961;52.940;6.834;2022-10-16T09:50:03;16.20;99.90
57026;DHT22;43961;52.940;6.834;2022-10-16T09:52:32;16.30;99.90
57026;DHT22;43961;52.940;6.834;2022-10-16T09:55:00;16.40;99.90
57026;DHT22;43961;52.940;6.834;2022-10-16T09:57:27;16.50;99.90
57026;DHT22;43961;52.940;6.834;2022-10-16T09:59:55;16.60;99.90
57026;DHT22;43961;52.940;6.834;2022-10-16T10:02:50;16.70;99.90
57026;DHT22;43961;52.940;6.834;2022-10-16T10:05:28;16.60;99.90
57026;DHT22;43961;52.940;6.834;2022-10-16T10:07:55;16.70;99.90
57026;DHT22;43961;52.940;6.834;2022-10-16T10:10:30;16.80;99.90
57026;DHT22;43961;52.940;6.834;2022-10-16T10:12:56;16.90;99.90
57026;DHT22;43961;52.940;6.834;2022-10-16T10:15:23;16.80;99.90
57026;DHT22;43961;52.940;6.834;2022-10-16T10:17:53;16.70;99.90
57026;DHT22;43961;52.940;6.834;2022-10-16T10:20:28;16.70;99.90
57026;DHT22;43961;52.940;6.834;2022-10-16T10:22:56;16.60;99.90
57026;DHT22;43961;52.940;6.834;2022-10-16T10:25:36;16.50;99.90
57026;DHT22;43961;52.940;6.834;2022-10-16T10:31:07;16.60;99.90
57026;DHT22;43961;52.940;6.834;2022-10-16T10:46:58;16.90;99.90
57026;DHT22;43961;52.940;6.834;2022-10-16T10:49:49;16.90;99.90
57026;DHT22;43961;52.940;6.834;2022-10-16T10:55:45;17.00;99.90
57026;DHT22;43961;52.940;6.834;2022-10-16T11:05:50;16.90;99.90
57026;DHT22;43961;52.940;6.834;2022-10-16T11:08:32;16.90;99.90
57026;DHT22;43961;52.940;6.834;2022-10-16T11:11:17;16.90;99.90
57026;DHT22;43961;52.940;6.834;2022-10-16T11:16:32;17.00;99.90
57026;DHT22;43961;52.940;6.834;2022-10-16T11:19:02;17.00;99.90
57026;DHT22;43961;52.940;6.834;2022-10-16T11:21:34;17.10;99.90
57026;DHT22;43961;52.940;6.834;2022-10-16T11:24:06;17.00;99.90
57026;DHT22;43961;52.940;6.834;2022-10-16T11:26:36;16.90;99.90
57026;DHT22;43961;52.940;6.834;2022-10-16T11:29:12;16.80;99.90
57026;DHT22;43961;52.940;6.834;2022-10-16T11:31:46;16.80;99.90
57026;DHT22;43961;52.940;6.834;2022-10-16T11:34:36;16.80;99.90
57026;DHT22;43961;52.940;6.834;2022-10-16T11:37:38;16.80;99.90
57026;DHT22;43961;52.940;6.834;2022-10-16T11:40:33;16.90;99.90
57026;DHT22;43961;52.940;6.834;2022-10-16T11:45:43;17.10;99.90
57026;DHT22;43961;52.940;6.834;2022-10-16T11:48:43;17.10;99.90
57026;DHT22;43961;52.940;6.834;2022-10-16T11:54:00;17.20;99.90
57026;DHT22;43961;52.940;6.834;2022-10-16T11:56:28;17.10;99.90
57026;DHT22;43961;52.940;6.834;2022-10-16T11:58:59;17.20;99.90
57026;DHT22;43961;52.940;6.834;2022-10-16T12:06:47;17.50;99.90
57026;DHT22;43961;52.940;6.834;2022-10-16T12:09:30;17.50;99.90
57026;DHT22;43961;52.940;6.834;2022-10-16T12:11:57;17.60;99.90
57026;DHT22;43961;52.940;6.834;2022-10-16T12:17:26;17.90;99.90
57026;DHT22;43961;52.940;6.834;2022-10-16T12:22:47;17.80;99.90
57026;DHT22;43961;52.940;6.834;2022-10-16T12:25:39;17.80;99.90
57026;DHT22;43961;52.940;6.834;2022-10-16T12:30:42;17.60;99.90
57026;DHT22;43961;52.940;6.834;2022-10-16T12:35:57;17.30;99.90
57026;DHT22;43961;52.940;6.834;2022-10-16T12:38:30;17.30;99.90
57026;DHT22;43961;52.940;6.834;2022-10-16T12:41:07;17.40;99.90
57026;DHT22;43961;52.940;6.834;2022-10-16T12:43:47;17.60;99.90
57026;DHT22;43961;52.940;6.834;2022-10-16T12:48:41;17.80;99.90
57026;DHT22;43961;52.940;6.834;2022-10-16T12:53:37;17.90;99.90
57026;DHT22;43961;52.940;6.834;2022-10-16T12:58:51;18.00;99.90
57026;DHT22;43961;52.940;6.834;2022-10-16T13:01:34;18.00;99.90
57026;DHT22;43961;52.940;6.834;2022-10-16T13:04:08;18.00;99.90
57026;DHT22;43961;52.940;6.834;2022-10-16T13:09:49;18.10;99.90
57026;DHT22;43961;52.940;6.834;2022-10-16T13:17:45;18.20;99.90
57026;DHT22;43961;52.940;6.834;2022-10-16T13:28:13;18.10;99.90
57026;DHT22;43961;52.940;6.834;2022-10-16T13:30:41;18.00;99.90
57026;DHT22;43961;52.940;6.834;2022-10-16T13:33:26;18.00;99.90
57026;DHT22;43961;52.940;6.834;2022-10-16T13:35:56;18.00;99.90
57026;DHT22;43961;52.940;6.834;2022-10-16T13:38:27;18.00;99.90
57026;DHT22;43961;52.940;6.834;2022-10-16T13:41:05;18.00;99.90
57026;DHT22;43961;52.940;6.834;2022-10-16T13:46:07;17.80;99.90
57026;DHT22;43961;52.940;6.834;2022-10-16T13:48:33;17.70;99.90
57026;DHT22;43961;52.940;6.834;2022-10-16T13:51:17;17.60;99.90
57026;DHT22;43961;52.940;6.834;2022-10-16T13:53:43;17.50;99.90
57026;DHT22;43961;52.940;6.834;2022-10-16T13:56:16;17.30;99.90
57026;DHT22;43961;52.940;6.834;2022-10-16T13:58:42;17.40;99.90
57026;DHT22;43961;52.940;6.834;2022-10-16T14:01:41;17.30;99.90
57026;DHT22;43961;52.940;6.834;2022-10-16T14:04:10;17.20;99.90
57026;DHT22;43961;52.940;6.834;2022-10-16T14:06:41;17.00;99.90
57026;DHT22;43961;52.940;6.834;2022-10-16T14:09:23;17.00;99.90
57026;DHT22;43961;52.940;6.834;2022-10-16T14:12:09;17.00;99.90
57026;DHT22;43961;52.940;6.834;2022-10-16T14:14:41;16.90;99.90
57026;DHT22;43961;52.940;6.834;2022-10-16T14:17:18;17.00;99.90
57026;DHT22;43961;52.940;6.834;2022-10-16T14:19:49;17.00;99.90
57026;DHT22;43961;52.940;6.834;2022-10-16T14:22:30;16.90;99.90
57026;DHT22;43961;52.940;6.834;2022-10-16T14:24:57;17.00;99.90
57026;DHT22;43961;52.940;6.834;2022-10-16T14:27:30;16.90;99.90
57026;DHT22;43961;52.940;6.834;2022-10-16T14:30:17;16.90;99.90
57026;DHT22;43961;52.940;6.834;2022-10-16T14:33:30;16.90;99.90
57026;DHT22;43961;52.940;6.834;2022-10-16T14:35:45;16.80;99.90
57026;DHT22;43961;52.940;6.834;2022-10-16T14:38:21;16.70;99.90
57026;DHT22;43961;52.940;6.834;2022-10-16T14:40:48;16.70;99.90
57026;DHT22;43961;52.940;6.834;2022-10-16T14:43:24;16.70;99.90
57026;DHT22;43961;52.940;6.834;2022-10-16T14:45:53;16.70;99.90
57026;DHT22;43961;52.940;6.834;2022-10-16T14:48:21;16.80;99.90
57026;DHT22;43961;52.940;6.834;2022-10-16T14:50:47;16.50;99.90
57026;DHT22;43961;52.940;6.834;2022-10-16T14:53:13;16.50;99.90
57026;DHT22;43961;52.940;6.834;2022-10-16T14:55:40;16.50;99.90
57026;DHT22;43961;52.940;6.834;2022-10-16T14:58:16;16.50;99.90
57026;DHT22;43961;52.940;6.834;2022-10-16T15:00:43;16.40;99.90
57026;DHT22;43961;52.940;6.834;2022-10-16T15:03:08;16.40;99.90
57026;DHT22;43961;52.940;6.834;2022-10-16T15:05:34;16.40;99.90
57026;DHT22;43961;52.940;6.834;2022-10-16T15:08:00;16.40;99.90
57026;DHT22;43961;52.940;6.834;2022-10-16T15:10:27;16.40;99.90
57026;DHT22;43961;52.940;6.834;2022-10-16T15:12:53;16.20;99.90
57026;DHT22;43961;52.940;6.834;2022-10-16T15:15:33;16.20;99.90
57026;DHT22;43961;52.940;6.834;2022-10-16T15:17:59;16.20;99.90
57026;DHT22;43961;52.940;6.834;2022-10-16T15:20:28;16.40;99.90
57026;DHT22;43961;52.940;6.834;2022-10-16T15:22:53;16.10;99.90
57026;DHT22;43961;52.940;6.834;2022-10-16T15:25:54;16.10;99.90
57026;DHT22;43961;52.940;6.834;2022-10-16T15:28:21;16.10;99.90
57026;DHT22;43961;52.940;6.834;2022-10-16T15:30:50;15.90;99.90
57026;DHT22;43961;52.940;6.834;2022-10-16T15:33:18;15.90;99.90
57026;DHT22;43961;52.940;6.834;2022-10-16T15:35:47;16.00;99.90
57026;DHT22;43961;52.940;6.834;2022-10-16T15:38:14;15.90;99.90
57026;DHT22;43961;52.940;6.834;2022-10-16T15:40:40;15.90;99.90
57026;DHT22;43961;52.940;6.834;2022-10-16T15:43:07;15.80;99.90
57026;DHT22;43961;52.940;6.834;2022-10-16T15:45:33;16.00;99.90
57026;DHT22;43961;52.940;6.834;2022-10-16T15:47:58;15.90;99.90
57026;DHT22;43961;52.940;6.834;2022-10-16T15:50:24;15.80;99.90
57026;DHT22;43961;52.940;6.834;2022-10-16T15:52:50;15.90;99.90
57026;DHT22;43961;52.940;6.834;2022-10-16T15:55:16;15.60;99.90
57026;DHT22;43961;52.940;6.834;2022-10-16T15:57:44;15.60;99.90
57026;DHT22;43961;52.940;6.834;2022-10-16T16:00:13;15.70;99.90
57026;DHT22;43961;52.940;6.834;2022-10-16T16:02:42;15.50;99.90
57026;DHT22;43961;52.940;6.834;2022-10-16T16:05:10;15.50;99.90
57026;DHT22;43961;52.940;6.834;2022-10-16T16:07:37;15.50;99.90
57026;DHT22;43961;52.940;6.834;2022-10-16T16:10:05;15.40;99.90
57026;DHT22;43961;52.940;6.834;2022-10-16T16:12:32;15.30;99.90
57026;DHT22;43961;52.940;6.834;2022-10-16T16:14:58;15.40;99.90
57026;DHT22;43961;52.940;6.834;2022-10-16T16:17:23;15.20;99.90
57026;DHT22;43961;52.940;6.834;2022-10-16T16:19:50;15.10;99.90
57026;DHT22;43961;52.940;6.834;2022-10-16T16:22:16;15.10;99.90
57026;DHT22;43961;52.940;6.834;2022-10-16T16:24:42;15.00;99.90
57026;DHT22;43961;52.940;6.834;2022-10-16T16:27:08;14.90;99.90
57026;DHT22;43961;52.940;6.834;2022-10-16T16:29:34;14.90;99.90
57026;DHT22;43961;52.940;6.834;2022-10-16T16:32:00;14.80;99.90
57026;DHT22;43961;52.940;6.834;2022-10-16T16:34:27;14.70;99.90
57026;DHT22;43961;52.940;6.834;2022-10-16T16:36:53;14.70;99.90
57026;DHT22;43961;52.940;6.834;2022-10-16T16:39:19;14.60;99.90
57026;DHT22;43961;52.940;6.834;2022-10-16T16:41:45;14.60;99.90
57026;DHT22;43961;52.940;6.834;2022-10-16T16:44:11;14.40;99.90
57026;DHT22;43961;52.940;6.834;2022-10-16T16:46:37;14.80;99.90
57026;DHT22;43961;52.940;6.834;2022-10-16T16:49:06;14.40;99.90
57026;DHT22;43961;52.940;6.834;2022-10-16T16:51:32;14.30;99.90
57026;DHT22;43961;52.940;6.834;2022-10-16T16:53:58;14.20;99.90
57026;DHT22;43961;52.940;6.834;2022-10-16T16:56:25;14.20;99.90
57026;DHT22;43961;52.940;6.834;2022-10-16T16:58:52;14.30;99.90
57026;DHT22;43961;52.940;6.834;2022-10-16T17:01:19;14.00;99.90
57026;DHT22;43961;52.940;6.834;2022-10-16T17:03:45;13.90;99.90
57026;DHT22;43961;52.940;6.834;2022-10-16T17:06:12;13.90;99.90
57026;DHT22;43961;52.940;6.834;2022-10-16T17:08:40;13.90;99.90
57026;DHT22;43961;52.940;6.834;2022-10-16T17:11:11;13.90;99.90
57026;DHT22;43961;52.940;6.834;2022-10-16T17:13:36;14.10;99.90
57026;DHT22;43961;52.940;6.834;2022-10-16T17:16:05;13.70;99.90
57026;DHT22;43961;52.940;6.834;2022-10-16T17:18:31;13.70;99.90
57026;DHT22;43961;52.940;6.834;2022-10-16T17:21:02;13.60;99.90